sensor_id;sensor_type;location;lat;lon;timestamp;P1;durP1;ratioP1;P2;durP2;ratioP2
6452;SDS011;3259;51.080;13.712;2023-08-21T00:02:08;5.25;;;2.88;;
6452;SDS011;3259;51.080;13.712;2023-08-21T00:04:57;4.40;;;3.50;;
6452;SDS011;3259;51.080;13.712;2023-08-21T00:07:47;5.68;;;2.92;;
6452;SDS011;3259;51.080;13.712;2023-08-21T00:10:38;3.65;;;3.30;;
6452;SDS011;3259;51.080;13.712;2023-08-21T00:13:27;4.20;;;2.65;;
6452;SDS011;3259;51.080;13.712;2023-08-21T00:16:17;6.72;;;3.33;;
6452;SDS011;3259;51.080;13.712;2023-08-21T00:19:06;5.88;;;3.58;;
6452;SDS011;3259;51.080;13.712;2023-08-21T00:21:55;3.92;;;3.15;;
6452;SDS011;3259;51.080;13.712;2023-08-21T00:24:46;5.22;;;3.33;;
6452;SDS011;3259;51.080;13.712;2023-08-21T00:27:35;5.18;;;3.20;;
6452;SDS011;3259;51.080;13.712;2023-08-21T00:30:25;7.32;;;3.75;;
6452;SDS011;3259;51.080;13.712;2023-08-21T00:33:14;6.15;;;3.25;;
6452;SDS011;3259;51.080;13.712;2023-08-21T00:36:03;6.15;;;3.70;;
6452;SDS011;3259;51.080;13.712;2023-08-21T00:38:53;4.30;;;3.75;;
6452;SDS011;3259;51.080;13.712;2023-08-21T00:41:46;6.30;;;3.15;;
6452;SDS011;3259;51.080;13.712;2023-08-21T00:44:35;4.28;;;3.47;;
6452;SDS011;3259;51.080;13.712;2023-08-21T00:47:27;3.72;;;3.17;;
6452;SDS011;3259;51.080;13.712;2023-08-21T00:50:16;4.68;;;3.50;;
6452;SDS011;3259;51.080;13.712;2023-08-21T00:53:06;4.95;;;3.08;;
6452;SDS011;3259;51.080;13.712;2023-08-21T00:55:57;6.78;;;2.97;;
6452;SDS011;3259;51.080;13.712;2023-08-21T00:58:49;3.20;;;2.90;;
6452;SDS011;3259;51.080;13.712;2023-08-21T01:01:38;2.90;;;2.70;;
6452;SDS011;3259;51.080;13.712;2023-08-21T01:04:29;3.75;;;3.30;;
6452;SDS011;3259;51.080;13.712;2023-08-21T01:07:18;3.92;;;3.22;;
6452;SDS011;3259;51.080;13.712;2023-08-21T01:10:09;5.03;;;3.38;;
6452;SDS011;3259;51.080;13.712;2023-08-21T01:13:06;3.67;;;3.33;;
6452;SDS011;3259;51.080;13.712;2023-08-21T01:16:05;3.83;;;3.17;;
6452;SDS011;3259;51.080;13.712;2023-08-21T01:18:57;3.38;;;3.05;;
6452;SDS011;3259;51.080;13.712;2023-08-21T01:21:48;5.88;;;3.10;;
6452;SDS011;3259;51.080;13.712;2023-08-21T01:24:39;3.20;;;3.00;;
6452;SDS011;3259;51.080;13.712;2023-08-21T01:27:30;3.08;;;2.88;;
6452;SDS011;3259;51.080;13.712;2023-08-21T01:30:21;3.40;;;3.05;;
6452;SDS011;3259;51.080;13.712;2023-08-21T01:33:10;5.88;;;3.08;;
6452;SDS011;3259;51.080;13.712;2023-08-21T01:36:03;4.57;;;3.40;;
6452;SDS011;3259;51.080;13.712;2023-08-21T01:38:53;5.38;;;3.20;;
6452;SDS011;3259;51.080;13.712;2023-08-21T01:41:44;3.70;;;2.83;;
6452;SDS011;3259;51.080;13.712;2023-08-21T01:44:33;7.65;;;2.92;;
6452;SDS011;3259;51.080;13.712;2023-08-21T01:47:23;5.35;;;3.42;;
6452;SDS011;3259;51.080;13.712;2023-08-21T01:50:14;4.57;;;3.45;;
6452;SDS011;3259;51.080;13.712;2023-08-21T01:53:05;3.85;;;3.55;;
6452;SDS011;3259;51.080;13.712;2023-08-21T01:55:55;3.78;;;3.47;;
6452;SDS011;3259;51.080;13.712;2023-08-21T01:58:46;4.15;;;2.85;;
6452;SDS011;3259;51.080;13.712;2023-08-21T02:01:35;3.47;;;3.25;;
6452;SDS011;3259;51.080;13.712;2023-08-21T02:04:24;3.88;;;3.58;;
6452;SDS011;3259;51.080;13.712;2023-08-21T02:07:13;4.65;;;3.45;;
6452;SDS011;3259;51.080;13.712;2023-08-21T02:10:02;3.72;;;3.00;;
6452;SDS011;3259;51.080;13.712;2023-08-21T02:12:54;6.00;;;2.90;;
6452;SDS011;3259;51.080;13.712;2023-08-21T02:15:46;3.38;;;3.08;;
6452;SDS011;3259;51.080;13.712;2023-08-21T02:18:34;4.53;;;3.22;;
6452;SDS011;3259;51.080;13.712;2023-08-21T02:21:23;3.33;;;3.03;;
6452;SDS011;3259;51.080;13.712;2023-08-21T02:24:12;3.78;;;3.30;;
6452;SDS011;3259;51.080;13.712;2023-08-21T02:27:00;5.53;;;3.97;;
6452;SDS011;3259;51.080;13.712;2023-08-21T02:29:50;4.93;;;2.53;;
6452;SDS011;3259;51.080;13.712;2023-08-21T02:32:40;3.20;;;2.90;;
6452;SDS011;3259;51.080;13.712;2023-08-21T02:35:30;5.70;;;3.28;;
6452;SDS011;3259;51.080;13.712;2023-08-21T02:38:19;3.13;;;2.83;;
6452;SDS011;3259;51.080;13.712;2023-08-21T02:41:08;4.28;;;3.80;;
6452;SDS011;3259;51.080;13.712;2023-08-21T02:43:57;3.45;;;3.15;;
6452;SDS011;3259;51.080;13.712;2023-08-21T02:46:47;3.67;;;3.03;;
6452;SDS011;3259;51.080;13.712;2023-08-21T02:49:37;7.30;;;3.70;;
6452;SDS011;3259;51.080;13.712;2023-08-21T02:52:29;5.35;;;3.50;;
6452;SDS011;3259;51.080;13.712;2023-08-21T02:55:18;4.03;;;2.95;;
6452;SDS011;3259;51.080;13.712;2023-08-21T02:58:08;5.75;;;3.30;;
6452;SDS011;3259;51.080;13.712;2023-08-21T03:00:57;4.25;;;2.70;;
6452;SDS011;3259;51.080;13.712;2023-08-21T03:03:46;4.97;;;3.45;;
6452;SDS011;3259;51.080;13.712;2023-08-21T03:06:37;3.88;;;3.00;;
6452;SDS011;3259;51.080;13.712;2023-08-21T03:09:26;4.53;;;3.65;;
6452;SDS011;3259;51.080;13.712;2023-08-21T03:12:16;3.13;;;2.80;;
6452;SDS011;3259;51.080;13.712;2023-08-21T03:15:05;3.88;;;3.55;;
6452;SDS011;3259;51.080;13.712;2023-08-21T03:17:55;6.32;;;3.50;;
6452;SDS011;3259;51.080;13.712;2023-08-21T03:20:44;4.40;;;3.42;;
6452;SDS011;3259;51.080;13.712;2023-08-21T03:23:35;3.42;;;3.13;;
6452;SDS011;3259;51.080;13.712;2023-08-21T03:26:25;3.60;;;3.30;;
6452;SDS011;3259;51.080;13.712;2023-08-21T03:29:14;5.70;;;3.20;;
6452;SDS011;3259;51.080;13.712;2023-08-21T03:32:03;6.25;;;3.15;;
6452;SDS011;3259;51.080;13.712;2023-08-21T03:34:53;7.35;;;2.90;;
6452;SDS011;3259;51.080;13.712;2023-08-21T03:37:43;5.40;;;3.40;;
6452;SDS011;3259;51.080;13.712;2023-08-21T03:40:34;3.90;;;3.47;;
6452;SDS011;3259;51.080;13.712;2023-08-21T03:43:23;3.92;;;3.35;;
6452;SDS011;3259;51.080;13.712;2023-08-21T03:46:12;4.70;;;3.47;;
6452;SDS011;3259;51.080;13.712;2023-08-21T03:49:01;7.50;;;4.10;;
6452;SDS011;3259;51.080;13.712;2023-08-21T03:51:51;3.95;;;3.55;;
6452;SDS011;3259;51.080;13.712;2023-08-21T03:54:41;8.90;;;3.67;;
6452;SDS011;3259;51.080;13.712;2023-08-21T03:57:33;4.40;;;3.63;;
6452;SDS011;3259;51.080;13.712;2023-08-21T04:00:29;4.82;;;3.92;;
6452;SDS011;3259;51.080;13.712;2023-08-21T04:03:18;6.80;;;3.75;;
6452;SDS011;3259;51.080;13.712;2023-08-21T04:06:08;5.32;;;3.70;;
6452;SDS011;3259;51.080;13.712;2023-08-21T04:08:57;6.10;;;3.60;;
6452;SDS011;3259;51.080;13.712;2023-08-21T04:11:46;4.65;;;3.67;;
6452;SDS011;3259;51.080;13.712;2023-08-21T04:14:36;4.07;;;3.58;;
6452;SDS011;3259;51.080;13.712;2023-08-21T04:17:26;4.82;;;3.30;;
6452;SDS011;3259;51.080;13.712;2023-08-21T04:20:15;9.00;;;4.28;;
6452;SDS011;3259;51.080;13.712;2023-08-21T04:23:04;5.55;;;3.95;;
6452;SDS011;3259;51.080;13.712;2023-08-21T04:25:59;9.68;;;3.45;;
6452;SDS011;3259;51.080;13.712;2023-08-21T04:28:49;11.98;;;3.90;;
6452;SDS011;3259;51.080;13.712;2023-08-21T04:31:41;6.78;;;3.63;;
6452;SDS011;3259;51.080;13.712;2023-08-21T04:34:31;6.10;;;4.05;;
6452;SDS011;3259;51.080;13.712;2023-08-21T04:37:21;4.82;;;3.70;;
6452;SDS011;3259;51.080;13.712;2023-08-21T04:40:12;6.03;;;3.83;;
6452;SDS011;3259;51.080;13.712;2023-08-21T04:43:02;4.28;;;3.70;;
6452;SDS011;3259;51.080;13.712;2023-08-21T04:45:52;4.00;;;3.47;;
6452;SDS011;3259;51.080;13.712;2023-08-21T04:48:43;7.00;;;3.85;;
6452;SDS011;3259;51.080;13.712;2023-08-21T04:51:32;9.27;;;3.60;;
6452;SDS011;3259;51.080;13.712;2023-08-21T04:54:22;5.93;;;4.00;;
6452;SDS011;3259;51.080;13.712;2023-08-21T04:57:11;6.05;;;4.10;;
6452;SDS011;3259;51.080;13.712;2023-08-21T05:00:00;8.05;;;4.18;;
6452;SDS011;3259;51.080;13.712;2023-08-21T05:02:51;9.45;;;3.92;;
6452;SDS011;3259;51.080;13.712;2023-08-21T05:05:41;6.05;;;4.97;;
6452;SDS011;3259;51.080;13.712;2023-08-21T05:08:30;9.30;;;5.13;;
6452;SDS011;3259;51.080;13.712;2023-08-21T05:11:18;5.78;;;4.72;;
6452;SDS011;3259;51.080;13.712;2023-08-21T05:14:07;9.27;;;4.80;;
6452;SDS011;3259;51.080;13.712;2023-08-21T05:16:56;7.63;;;4.53;;
6452;SDS011;3259;51.080;13.712;2023-08-21T05:19:45;4.72;;;4.22;;
6452;SDS011;3259;51.080;13.712;2023-08-21T05:22:35;7.25;;;4.78;;
6452;SDS011;3259;51.080;13.712;2023-08-21T05:25:24;8.65;;;5.03;;
6452;SDS011;3259;51.080;13.712;2023-08-21T05:28:13;8.13;;;5.03;;
6452;SDS011;3259;51.080;13.712;2023-08-21T05:31:02;8.65;;;5.25;;
6452;SDS011;3259;51.080;13.712;2023-08-21T05:33:51;7.53;;;4.90;;
6452;SDS011;3259;51.080;13.712;2023-08-21T05:36:39;5.35;;;4.95;;
6452;SDS011;3259;51.080;13.712;2023-08-21T05:39:29;5.78;;;4.70;;
6452;SDS011;3259;51.080;13.712;2023-08-21T05:42:18;5.65;;;5.15;;
6452;SDS011;3259;51.080;13.712;2023-08-21T05:45:07;9.45;;;5.38;;
6452;SDS011;3259;51.080;13.712;2023-08-21T05:47:56;11.15;;;5.93;;
6452;SDS011;3259;51.080;13.712;2023-08-21T05:50:44;8.55;;;5.63;;
6452;SDS011;3259;51.080;13.712;2023-08-21T05:53:38;9.35;;;5.50;;
6452;SDS011;3259;51.080;13.712;2023-08-21T05:56:28;6.57;;;5.13;;
6452;SDS011;3259;51.080;13.712;2023-08-21T05:59:25;6.28;;;5.60;;
6452;SDS011;3259;51.080;13.712;2023-08-21T06:02:15;6.45;;;5.80;;
6452;SDS011;3259;51.080;13.712;2023-08-21T06:05:04;12.27;;;5.80;;
6452;SDS011;3259;51.080;13.712;2023-08-21T06:07:53;7.97;;;5.25;;
6452;SDS011;3259;51.080;13.712;2023-08-21T06:10:42;6.15;;;5.43;;
6452;SDS011;3259;51.080;13.712;2023-08-21T06:13:32;6.93;;;5.57;;
6452;SDS011;3259;51.080;13.712;2023-08-21T06:16:21;9.07;;;5.50;;
6452;SDS011;3259;51.080;13.712;2023-08-21T06:19:09;9.73;;;5.40;;
6452;SDS011;3259;51.080;13.712;2023-08-21T06:21:58;7.38;;;5.05;;
6452;SDS011;3259;51.080;13.712;2023-08-21T06:24:47;6.20;;;5.57;;
6452;SDS011;3259;51.080;13.712;2023-08-21T06:27:36;6.72;;;5.28;;
6452;SDS011;3259;51.080;13.712;2023-08-21T06:30:45;5.57;;;4.90;;
6452;SDS011;3259;51.080;13.712;2023-08-21T06:33:33;7.68;;;5.85;;
6452;SDS011;3259;51.080;13.712;2023-08-21T06:36:23;6.03;;;5.22;;
6452;SDS011;3259;51.080;13.712;2023-08-21T06:39:12;10.52;;;4.70;;
6452;SDS011;3259;51.080;13.712;2023-08-21T06:42:00;6.53;;;4.38;;
6452;SDS011;3259;51.080;13.712;2023-08-21T06:44:49;8.88;;;5.18;;
6452;SDS011;3259;51.080;13.712;2023-08-21T06:47:39;9.57;;;4.47;;
6452;SDS011;3259;51.080;13.712;2023-08-21T06:50:28;9.63;;;5.47;;
6452;SDS011;3259;51.080;13.712;2023-08-21T06:53:17;6.07;;;5.25;;
6452;SDS011;3259;51.080;13.712;2023-08-21T06:56:05;9.77;;;5.57;;
6452;SDS011;3259;51.080;13.712;2023-08-21T06:58:54;8.13;;;5.70;;
6452;SDS011;3259;51.080;13.712;2023-08-21T07:01:43;8.23;;;5.60;;
6452;SDS011;3259;51.080;13.712;2023-08-21T07:04:33;7.47;;;5.82;;
6452;SDS011;3259;51.080;13.712;2023-08-21T07:07:22;6.32;;;5.20;;
6452;SDS011;3259;51.080;13.712;2023-08-21T07:10:11;7.78;;;6.15;;
6452;SDS011;3259;51.080;13.712;2023-08-21T07:13:00;6.28;;;5.20;;
6452;SDS011;3259;51.080;13.712;2023-08-21T07:15:52;5.45;;;4.57;;
6452;SDS011;3259;51.080;13.712;2023-08-21T07:18:41;7.28;;;5.35;;
6452;SDS011;3259;51.080;13.712;2023-08-21T07:21:31;7.15;;;5.18;;
6452;SDS011;3259;51.080;13.712;2023-08-21T07:24:22;11.57;;;5.25;;
6452;SDS011;3259;51.080;13.712;2023-08-21T07:27:11;7.88;;;5.18;;
6452;SDS011;3259;51.080;13.712;2023-08-21T07:30:00;8.88;;;5.40;;
6452;SDS011;3259;51.080;13.712;2023-08-21T07:32:49;7.07;;;6.10;;
6452;SDS011;3259;51.080;13.712;2023-08-21T07:35:38;12.05;;;6.18;;
6452;SDS011;3259;51.080;13.712;2023-08-21T07:38:28;9.35;;;5.90;;
6452;SDS011;3259;51.080;13.712;2023-08-21T07:41:16;10.80;;;6.28;;
6452;SDS011;3259;51.080;13.712;2023-08-21T07:44:05;8.43;;;5.65;;
6452;SDS011;3259;51.080;13.712;2023-08-21T07:46:54;7.70;;;6.25;;
6452;SDS011;3259;51.080;13.712;2023-08-21T07:49:42;6.47;;;5.47;;
6452;SDS011;3259;51.080;13.712;2023-08-21T07:52:31;8.80;;;5.38;;
6452;SDS011;3259;51.080;13.712;2023-08-21T07:55:21;8.27;;;5.28;;
6452;SDS011;3259;51.080;13.712;2023-08-21T07:58:10;7.13;;;5.47;;
6452;SDS011;3259;51.080;13.712;2023-08-21T08:00:59;6.18;;;4.53;;
6452;SDS011;3259;51.080;13.712;2023-08-21T08:03:48;6.82;;;4.80;;
6452;SDS011;3259;51.080;13.712;2023-08-21T08:06:37;5.88;;;4.13;;
6452;SDS011;3259;51.080;13.712;2023-08-21T08:09:26;4.63;;;3.83;;
6452;SDS011;3259;51.080;13.712;2023-08-21T08:12:16;4.07;;;3.58;;
6452;SDS011;3259;51.080;13.712;2023-08-21T08:15:05;5.00;;;4.03;;
6452;SDS011;3259;51.080;13.712;2023-08-21T08:17:55;5.22;;;3.85;;
6452;SDS011;3259;51.080;13.712;2023-08-21T08:20:43;6.57;;;3.47;;
6452;SDS011;3259;51.080;13.712;2023-08-21T08:23:32;5.18;;;3.40;;
6452;SDS011;3259;51.080;13.712;2023-08-21T08:26:21;6.10;;;3.67;;
6452;SDS011;3259;51.080;13.712;2023-08-21T08:29:11;3.78;;;3.35;;
6452;SDS011;3259;51.080;13.712;2023-08-21T08:31:59;3.08;;;2.88;;
6452;SDS011;3259;51.080;13.712;2023-08-21T08:34:48;4.68;;;3.30;;
6452;SDS011;3259;51.080;13.712;2023-08-21T08:37:37;3.47;;;3.17;;
6452;SDS011;3259;51.080;13.712;2023-08-21T08:40:25;3.53;;;3.22;;
6452;SDS011;3259;51.080;13.712;2023-08-21T08:43:14;3.20;;;3.00;;
6452;SDS011;3259;51.080;13.712;2023-08-21T08:46:04;3.00;;;2.60;;
6452;SDS011;3259;51.080;13.712;2023-08-21T08:48:56;3.00;;;2.80;;
6452;SDS011;3259;51.080;13.712;2023-08-21T08:51:46;3.22;;;2.92;;
6452;SDS011;3259;51.080;13.712;2023-08-21T08:54:38;3.03;;;2.72;;
6452;SDS011;3259;51.080;13.712;2023-08-21T08:57:26;2.50;;;2.35;;
6452;SDS011;3259;51.080;13.712;2023-08-21T09:00:15;3.25;;;2.95;;
6452;SDS011;3259;51.080;13.712;2023-08-21T09:03:07;5.75;;;2.38;;
6452;SDS011;3259;51.080;13.712;2023-08-21T09:05:57;2.83;;;2.65;;
6452;SDS011;3259;51.080;13.712;2023-08-21T09:08:52;3.63;;;2.85;;
6452;SDS011;3259;51.080;13.712;2023-08-21T09:11:42;2.60;;;2.40;;
6452;SDS011;3259;51.080;13.712;2023-08-21T09:14:31;3.28;;;2.97;;
6452;SDS011;3259;51.080;13.712;2023-08-21T09:17:20;2.63;;;2.38;;
6452;SDS011;3259;51.080;13.712;2023-08-21T09:20:12;3.35;;;3.00;;
6452;SDS011;3259;51.080;13.712;2023-08-21T09:23:01;2.95;;;2.65;;
6452;SDS011;3259;51.080;13.712;2023-08-21T09:25:50;2.53;;;2.33;;
6452;SDS011;3259;51.080;13.712;2023-08-21T09:28:39;3.33;;;3.03;;
6452;SDS011;3259;51.080;13.712;2023-08-21T09:31:29;2.28;;;2.17;;
6452;SDS011;3259;51.080;13.712;2023-08-21T09:34:19;2.95;;;2.75;;
6452;SDS011;3259;51.080;13.712;2023-08-21T09:37:09;2.17;;;1.98;;
6452;SDS011;3259;51.080;13.712;2023-08-21T09:40:00;2.30;;;2.10;;
6452;SDS011;3259;51.080;13.712;2023-08-21T09:42:54;7.53;;;2.28;;
6452;SDS011;3259;51.080;13.712;2023-08-21T09:45:46;3.20;;;2.10;;
6452;SDS011;3259;51.080;13.712;2023-08-21T09:48:35;2.03;;;1.88;;
6452;SDS011;3259;51.080;13.712;2023-08-21T09:51:26;3.22;;;2.00;;
6452;SDS011;3259;51.080;13.712;2023-08-21T09:54:16;2.22;;;2.13;;
6452;SDS011;3259;51.080;13.712;2023-08-21T09:57:05;2.35;;;2.25;;
6452;SDS011;3259;51.080;13.712;2023-08-21T09:59:54;1.55;;;1.52;;
6452;SDS011;3259;51.080;13.712;2023-08-21T10:02:45;2.13;;;2.03;;
6452;SDS011;3259;51.080;13.712;2023-08-21T10:05:40;1.98;;;1.92;;
6452;SDS011;3259;51.080;13.712;2023-08-21T10:08:29;1.98;;;1.90;;
6452;SDS011;3259;51.080;13.712;2023-08-21T10:11:21;1.90;;;1.80;;
6452;SDS011;3259;51.080;13.712;2023-08-21T10:14:10;1.58;;;1.58;;
6452;SDS011;3259;51.080;13.712;2023-08-21T10:16:59;4.18;;;1.75;;
6452;SDS011;3259;51.080;13.712;2023-08-21T10:19:50;1.65;;;1.65;;
6452;SDS011;3259;51.080;13.712;2023-08-21T10:22:42;2.28;;;1.65;;
6452;SDS011;3259;51.080;13.712;2023-08-21T10:25:32;2.45;;;2.28;;
6452;SDS011;3259;51.080;13.712;2023-08-21T10:28:44;1.67;;;1.58;;
6452;SDS011;3259;51.080;13.712;2023-08-21T10:31:37;1.40;;;1.40;;
6452;SDS011;3259;51.080;13.712;2023-08-21T10:34:31;1.60;;;1.50;;
6452;SDS011;3259;51.080;13.712;2023-08-21T10:37:21;1.73;;;1.67;;
6452;SDS011;3259;51.080;13.712;2023-08-21T10:40:10;1.48;;;1.48;;
6452;SDS011;3259;51.080;13.712;2023-08-21T10:46:27;2.40;;;1.60;;
6452;SDS011;3259;51.080;13.712;2023-08-21T10:49:16;1.75;;;1.58;;
6452;SDS011;3259;51.080;13.712;2023-08-21T10:52:05;1.75;;;1.65;;
6452;SDS011;3259;51.080;13.712;2023-08-21T10:54:54;3.80;;;1.67;;
6452;SDS011;3259;51.080;13.712;2023-08-21T10:57:46;1.80;;;1.70;;
6452;SDS011;3259;51.080;13.712;2023-08-21T11:00:35;4.90;;;1.63;;
6452;SDS011;3259;51.080;13.712;2023-08-21T11:03:25;1.70;;;1.60;;
6452;SDS011;3259;51.080;13.712;2023-08-21T11:06:14;2.10;;;1.33;;
6452;SDS011;3259;51.080;13.712;2023-08-21T11:09:12;1.67;;;1.58;;
6452;SDS011;3259;51.080;13.712;2023-08-21T11:12:04;1.92;;;1.83;;
6452;SDS011;3259;51.080;13.712;2023-08-21T11:14:54;1.70;;;1.60;;
6452;SDS011;3259;51.080;13.712;2023-08-21T11:17:50;2.17;;;1.20;;
6452;SDS011;3259;51.080;13.712;2023-08-21T11:20:40;1.65;;;1.48;;
6452;SDS011;3259;51.080;13.712;2023-08-21T11:23:31;2.10;;;1.90;;
6452;SDS011;3259;51.080;13.712;2023-08-21T11:26:21;2.92;;;1.60;;
6452;SDS011;3259;51.080;13.712;2023-08-21T11:29:11;1.10;;;1.10;;
6452;SDS011;3259;51.080;13.712;2023-08-21T11:32:00;1.33;;;1.27;;
6452;SDS011;3259;51.080;13.712;2023-08-21T11:34:51;1.33;;;1.15;;
6452;SDS011;3259;51.080;13.712;2023-08-21T11:37:44;1.40;;;1.40;;
6452;SDS011;3259;51.080;13.712;2023-08-21T11:40:34;1.30;;;1.20;;
6452;SDS011;3259;51.080;13.712;2023-08-21T11:43:33;1.42;;;1.33;;
6452;SDS011;3259;51.080;13.712;2023-08-21T11:46:23;1.38;;;1.35;;
6452;SDS011;3259;51.080;13.712;2023-08-21T11:49:12;2.05;;;1.40;;
6452;SDS011;3259;51.080;13.712;2023-08-21T11:52:01;1.52;;;1.45;;
6452;SDS011;3259;51.080;13.712;2023-08-21T11:54:51;1.35;;;1.30;;
6452;SDS011;3259;51.080;13.712;2023-08-21T11:57:48;1.50;;;1.40;;
6452;SDS011;3259;51.080;13.712;2023-08-21T12:00:37;18.88;;;6.28;;
6452;SDS011;3259;51.080;13.712;2023-08-21T12:03:28;53.17;;;18.95;;
6452;SDS011;3259;51.080;13.712;2023-08-21T12:06:17;79.28;;;25.95;;
6452;SDS011;3259;51.080;13.712;2023-08-21T12:09:06;70.07;;;24.98;;
6452;SDS011;3259;51.080;13.712;2023-08-21T12:11:55;72.55;;;25.92;;
6452;SDS011;3259;51.080;13.712;2023-08-21T12:14:45;60.03;;;24.45;;
6452;SDS011;3259;51.080;13.712;2023-08-21T12:17:34;58.53;;;24.30;;
6452;SDS011;3259;51.080;13.712;2023-08-21T12:20:23;57.03;;;21.95;;
6452;SDS011;3259;51.080;13.712;2023-08-21T12:23:12;54.33;;;21.25;;
6452;SDS011;3259;51.080;13.712;2023-08-21T12:26:00;51.20;;;20.88;;
6452;SDS011;3259;51.080;13.712;2023-08-21T12:28:51;50.25;;;20.20;;
6452;SDS011;3259;51.080;13.712;2023-08-21T12:31:39;57.72;;;18.98;;
6452;SDS011;3259;51.080;13.712;2023-08-21T12:34:28;44.33;;;17.52;;
6452;SDS011;3259;51.080;13.712;2023-08-21T12:37:17;43.80;;;17.90;;
6452;SDS011;3259;51.080;13.712;2023-08-21T12:40:06;33.92;;;16.20;;
6452;SDS011;3259;51.080;13.712;2023-08-21T12:42:56;38.15;;;15.85;;
6452;SDS011;3259;51.080;13.712;2023-08-21T12:45:46;35.28;;;14.60;;
6452;SDS011;3259;51.080;13.712;2023-08-21T12:48:35;37.05;;;14.65;;
6452;SDS011;3259;51.080;13.712;2023-08-21T12:51:24;31.60;;;13.45;;
6452;SDS011;3259;51.080;13.712;2023-08-21T12:54:12;36.83;;;15.25;;
6452;SDS011;3259;51.080;13.712;2023-08-21T12:57:01;34.17;;;13.25;;
6452;SDS011;3259;51.080;13.712;2023-08-21T12:59:50;29.83;;;13.70;;
6452;SDS011;3259;51.080;13.712;2023-08-21T13:02:41;28.73;;;12.85;;
6452;SDS011;3259;51.080;13.712;2023-08-21T13:05:29;23.05;;;12.15;;
6452;SDS011;3259;51.080;13.712;2023-08-21T13:08:18;29.10;;;12.75;;
6452;SDS011;3259;51.080;13.712;2023-08-21T13:11:07;31.15;;;12.00;;
6452;SDS011;3259;51.080;13.712;2023-08-21T13:13:56;23.42;;;11.60;;
6452;SDS011;3259;51.080;13.712;2023-08-21T13:16:45;28.05;;;12.00;;
6452;SDS011;3259;51.080;13.712;2023-08-21T13:19:35;22.42;;;10.38;;
6452;SDS011;3259;51.080;13.712;2023-08-21T13:22:24;18.33;;;10.45;;
6452;SDS011;3259;51.080;13.712;2023-08-21T13:25:13;18.88;;;9.93;;
6452;SDS011;3259;51.080;13.712;2023-08-21T13:28:01;21.35;;;10.63;;
6452;SDS011;3259;51.080;13.712;2023-08-21T13:30:51;18.90;;;10.40;;
6452;SDS011;3259;51.080;13.712;2023-08-21T13:33:46;21.85;;;10.02;;
6452;SDS011;3259;51.080;13.712;2023-08-21T13:36:39;22.48;;;10.30;;
6452;SDS011;3259;51.080;13.712;2023-08-21T13:39:27;22.77;;;10.40;;
6452;SDS011;3259;51.080;13.712;2023-08-21T13:42:17;19.67;;;9.57;;
6452;SDS011;3259;51.080;13.712;2023-08-21T13:45:06;19.73;;;8.85;;
6452;SDS011;3259;51.080;13.712;2023-08-21T13:47:58;20.48;;;9.20;;
6452;SDS011;3259;51.080;13.712;2023-08-21T13:50:47;15.35;;;8.52;;
6452;SDS011;3259;51.080;13.712;2023-08-21T13:53:37;19.05;;;9.82;;
6452;SDS011;3259;51.080;13.712;2023-08-21T13:56:25;20.40;;;9.50;;
6452;SDS011;3259;51.080;13.712;2023-08-21T13:59:15;17.52;;;8.52;;
6452;SDS011;3259;51.080;13.712;2023-08-21T14:02:04;17.23;;;8.25;;
6452;SDS011;3259;51.080;13.712;2023-08-21T14:04:53;14.05;;;8.35;;
6452;SDS011;3259;51.080;13.712;2023-08-21T14:07:41;15.00;;;8.07;;
6452;SDS011;3259;51.080;13.712;2023-08-21T14:10:31;17.92;;;9.10;;
6452;SDS011;3259;51.080;13.712;2023-08-21T14:13:20;15.32;;;7.90;;
6452;SDS011;3259;51.080;13.712;2023-08-21T14:16:09;15.70;;;7.80;;
6452;SDS011;3259;51.080;13.712;2023-08-21T14:18:58;18.63;;;8.32;;
6452;SDS011;3259;51.080;13.712;2023-08-21T14:21:47;17.75;;;8.95;;
6452;SDS011;3259;51.080;13.712;2023-08-21T14:24:35;14.95;;;7.18;;
6452;SDS011;3259;51.080;13.712;2023-08-21T14:27:25;10.93;;;6.88;;
6452;SDS011;3259;51.080;13.712;2023-08-21T14:30:14;13.15;;;7.43;;
6452;SDS011;3259;51.080;13.712;2023-08-21T14:33:03;12.50;;;7.18;;
6452;SDS011;3259;51.080;13.712;2023-08-21T14:35:52;10.23;;;7.00;;
6452;SDS011;3259;51.080;13.712;2023-08-21T14:38:41;15.70;;;7.13;;
6452;SDS011;3259;51.080;13.712;2023-08-21T14:41:29;13.80;;;6.70;;
6452;SDS011;3259;51.080;13.712;2023-08-21T14:44:19;14.10;;;7.22;;
6452;SDS011;3259;51.080;13.712;2023-08-21T14:47:08;9.55;;;6.32;;
6452;SDS011;3259;51.080;13.712;2023-08-21T14:49:57;13.07;;;6.88;;
6452;SDS011;3259;51.080;13.712;2023-08-21T14:52:45;9.52;;;5.97;;
6452;SDS011;3259;51.080;13.712;2023-08-21T14:55:35;12.98;;;6.70;;
6452;SDS011;3259;51.080;13.712;2023-08-21T14:58:24;10.85;;;6.57;;
6452;SDS011;3259;51.080;13.712;2023-08-21T15:01:14;11.23;;;6.22;;
6452;SDS011;3259;51.080;13.712;2023-08-21T15:04:03;7.25;;;5.55;;
6452;SDS011;3259;51.080;13.712;2023-08-21T15:06:51;9.00;;;5.80;;
6452;SDS011;3259;51.080;13.712;2023-08-21T15:09:40;10.48;;;5.82;;
6452;SDS011;3259;51.080;13.712;2023-08-21T15:12:29;8.88;;;5.47;;
6452;SDS011;3259;51.080;13.712;2023-08-21T15:15:17;8.65;;;5.88;;
6452;SDS011;3259;51.080;13.712;2023-08-21T15:18:13;8.02;;;5.70;;
6452;SDS011;3259;51.080;13.712;2023-08-21T15:21:02;10.27;;;5.68;;
6452;SDS011;3259;51.080;13.712;2023-08-21T15:23:51;9.18;;;5.35;;
6452;SDS011;3259;51.080;13.712;2023-08-21T15:26:41;9.77;;;4.68;;
6452;SDS011;3259;51.080;13.712;2023-08-21T15:29:30;7.97;;;5.07;;
6452;SDS011;3259;51.080;13.712;2023-08-21T15:32:18;8.93;;;4.85;;
6452;SDS011;3259;51.080;13.712;2023-08-21T15:35:09;5.90;;;4.72;;
6452;SDS011;3259;51.080;13.712;2023-08-21T15:37:57;7.68;;;4.55;;
6452;SDS011;3259;51.080;13.712;2023-08-21T15:40:46;7.20;;;5.15;;
6452;SDS011;3259;51.080;13.712;2023-08-21T15:43:35;6.28;;;4.38;;
6452;SDS011;3259;51.080;13.712;2023-08-21T15:46:23;6.90;;;4.78;;
6452;SDS011;3259;51.080;13.712;2023-08-21T15:49:12;8.32;;;4.18;;
6452;SDS011;3259;51.080;13.712;2023-08-21T15:52:02;9.90;;;4.55;;
6452;SDS011;3259;51.080;13.712;2023-08-21T15:54:52;4.90;;;3.80;;
6452;SDS011;3259;51.080;13.712;2023-08-21T15:57:41;9.13;;;4.63;;
6452;SDS011;3259;51.080;13.712;2023-08-21T16:00:31;6.57;;;3.63;;
6452;SDS011;3259;51.080;13.712;2023-08-21T16:03:19;5.95;;;4.10;;
6452;SDS011;3259;51.080;13.712;2023-08-21T16:06:08;7.28;;;4.07;;
6452;SDS011;3259;51.080;13.712;2023-08-21T16:08:58;11.25;;;5.70;;
6452;SDS011;3259;51.080;13.712;2023-08-21T16:11:47;9.52;;;5.38;;
6452;SDS011;3259;51.080;13.712;2023-08-21T16:14:36;9.38;;;5.47;;
6452;SDS011;3259;51.080;13.712;2023-08-21T16:17:24;9.52;;;5.57;;
6452;SDS011;3259;51.080;13.712;2023-08-21T16:20:13;9.60;;;4.47;;
6452;SDS011;3259;51.080;13.712;2023-08-21T16:23:03;10.20;;;5.13;;
6452;SDS011;3259;51.080;13.712;2023-08-21T16:25:54;7.72;;;4.45;;
6452;SDS011;3259;51.080;13.712;2023-08-21T16:28:43;4.97;;;4.15;;
6452;SDS011;3259;51.080;13.712;2023-08-21T16:31:32;8.73;;;4.50;;
6452;SDS011;3259;51.080;13.712;2023-08-21T16:34:21;5.18;;;4.47;;
6452;SDS011;3259;51.080;13.712;2023-08-21T16:37:09;5.45;;;4.43;;
6452;SDS011;3259;51.080;13.712;2023-08-21T16:39:58;5.13;;;4.43;;
6452;SDS011;3259;51.080;13.712;2023-08-21T16:42:48;6.47;;;3.67;;
6452;SDS011;3259;51.080;13.712;2023-08-21T16:45:37;11.70;;;4.13;;
6452;SDS011;3259;51.080;13.712;2023-08-21T16:48:25;3.90;;;3.60;;
6452;SDS011;3259;51.080;13.712;2023-08-21T16:51:14;4.03;;;3.70;;
6452;SDS011;3259;51.080;13.712;2023-08-21T16:54:03;4.85;;;4.13;;
6452;SDS011;3259;51.080;13.712;2023-08-21T16:56:52;4.57;;;3.63;;
6452;SDS011;3259;51.080;13.712;2023-08-21T16:59:42;3.92;;;3.53;;
6452;SDS011;3259;51.080;13.712;2023-08-21T17:02:31;4.50;;;3.67;;
6452;SDS011;3259;51.080;13.712;2023-08-21T17:05:19;4.70;;;4.03;;
6452;SDS011;3259;51.080;13.712;2023-08-21T17:08:08;3.83;;;3.45;;
6452;SDS011;3259;51.080;13.712;2023-08-21T17:10:57;8.35;;;3.80;;
6452;SDS011;3259;51.080;13.712;2023-08-21T17:13:45;7.90;;;4.57;;
6452;SDS011;3259;51.080;13.712;2023-08-21T17:16:38;6.60;;;3.80;;
6452;SDS011;3259;51.080;13.712;2023-08-21T17:19:32;4.13;;;3.08;;